Crowders, North Carolina
Current Conditions -  °F | °C
As of 7:54 PM on Friday 19 Dec 2014 (Local Time) from KAKH Reporting Station
Haze Haze  
Wind Chill: 46°   Ceiling: Unl
Heat Index: 46°   Visibility: 4mi
Dew Point: 31°   Wind: 0mph
Humidity: 56%   Direction: NA
Pressure: 30.15"   Gusts: NA
Location:  35.2205°N, 81.2501°W
Report Text: KAKH 200054Z AUTO 00000KT 4SM HZ CLR 08/M01 A3015 RMK AO2 SLP215 T00781006
Loading
Personal Weather Stations






























Interactive Weather Map New forecast layout! Learn more

10-Day Weather Forecast

Advertisements
Track Severe Weather on mobile